createdAt,value
2022-12-03T00:01:24.116Z,5.53
2022-12-03T00:03:51.973Z,5.53
2022-12-03T00:06:19.969Z,5.52
2022-12-03T00:08:47.743Z,5.53
2022-12-03T00:11:15.593Z,5.54
2022-12-03T00:13:43.310Z,5.53
2022-12-03T00:16:11.413Z,5.54
2022-12-03T00:18:39.145Z,5.54
2022-12-03T00:21:07.656Z,5.51
2022-12-03T00:23:40.286Z,5.51
2022-12-03T00:26:09.941Z,5.51
2022-12-03T00:28:37.826Z,5.51
2022-12-03T00:31:05.814Z,5.49
2022-12-03T00:33:33.617Z,5.49
2022-12-03T00:36:01.310Z,5.49
2022-12-03T00:38:28.992Z,5.51
2022-12-03T00:40:56.709Z,5.50
2022-12-03T00:43:24.501Z,5.51
2022-12-03T00:45:52.927Z,5.52
2022-12-03T00:48:20.798Z,5.55
2022-12-03T00:50:48.509Z,5.54
2022-12-03T00:53:16.216Z,5.55
2022-12-03T00:55:43.970Z,5.54
2022-12-03T00:58:11.812Z,5.53
2022-12-03T01:00:39.593Z,5.49
2022-12-03T01:03:07.331Z,5.48
2022-12-03T01:05:35.212Z,5.45
2022-12-03T01:08:02.941Z,5.41
2022-12-03T01:10:30.738Z,5.43
2022-12-03T01:12:58.407Z,5.42
2022-12-03T01:15:26.111Z,5.40
2022-12-03T01:17:54.316Z,5.40
2022-12-03T01:20:22.217Z,5.39
2022-12-03T01:22:49.877Z,5.42
2022-12-03T01:25:17.994Z,5.42
2022-12-03T01:27:45.693Z,5.40
2022-12-03T01:30:14.599Z,5.40
2022-12-03T01:32:42.261Z,5.43
2022-12-03T01:35:10.026Z,5.44
2022-12-03T01:37:38.280Z,5.45
2022-12-03T01:40:09.220Z,5.46
2022-12-03T01:42:41.168Z,5.47
2022-12-03T01:45:22.750Z,5.47
2022-12-03T01:47:50.880Z,5.51
2022-12-03T01:50:31.273Z,5.48
2022-12-03T01:53:03.027Z,5.50
2022-12-03T01:55:30.901Z,5.48
2022-12-03T01:58:02.022Z,5.50
2022-12-03T02:00:30.765Z,5.53
2022-12-03T02:03:03.888Z,5.54
2022-12-03T02:05:33.992Z,5.50
2022-12-03T02:08:02.007Z,5.49
2022-12-03T02:10:37.353Z,5.50
2022-12-03T02:13:08.873Z,5.49
2022-12-03T02:15:39.240Z,5.49
2022-12-03T02:18:09.423Z,5.46
2022-12-03T02:21:01.796Z,5.46
2022-12-03T02:24:15.136Z,5.43
2022-12-03T02:26:43.185Z,5.46
2022-12-03T02:29:11.183Z,5.47
2022-12-03T02:31:39.132Z,5.47
2022-12-03T02:34:07.802Z,5.47
2022-12-03T02:36:37.437Z,5.48
2022-12-03T02:39:05.752Z,5.47
2022-12-03T02:41:52.059Z,5.46
2022-12-03T02:44:19.908Z,5.45
2022-12-03T02:46:47.752Z,5.45
2022-12-03T02:49:15.679Z,5.43
2022-12-03T02:51:43.504Z,5.41
2022-12-03T02:54:12.072Z,5.42
2022-12-03T02:56:40.691Z,5.40
2022-12-03T02:59:08.671Z,5.38
2022-12-03T03:01:36.779Z,5.37
2022-12-03T03:04:06.421Z,5.36
2022-12-03T03:06:34.472Z,5.33
2022-12-03T03:09:03.540Z,5.32
2022-12-03T03:11:31.676Z,5.32
2022-12-03T03:14:03.041Z,5.28
2022-12-03T03:16:30.865Z,5.25
2022-12-03T03:18:58.697Z,5.24
2022-12-03T03:21:26.402Z,5.27
2022-12-03T03:23:54.207Z,5.25
2022-12-03T03:26:22.136Z,5.26
2022-12-03T03:28:52.192Z,5.26
2022-12-03T03:31:23.682Z,5.22
2022-12-03T03:33:51.685Z,5.22
2022-12-03T03:36:20.255Z,5.22
2022-12-03T03:38:48.782Z,5.20
2022-12-03T03:41:17.511Z,5.21
2022-12-03T03:43:47.846Z,5.22
2022-12-03T03:46:18.258Z,5.25
2022-12-03T03:48:48.586Z,5.26
2022-12-03T03:51:18.987Z,5.25
2022-12-03T03:53:50.273Z,5.26
2022-12-03T03:56:21.084Z,5.26
2022-12-03T03:58:48.905Z,5.28
2022-12-03T04:01:18.208Z,5.27
2022-12-03T04:03:46.216Z,5.27
2022-12-03T04:06:13.952Z,5.30
2022-12-03T04:08:41.984Z,5.32
2022-12-03T04:11:28.474Z,5.33
2022-12-03T04:13:56.200Z,5.34
2022-12-03T04:16:24.017Z,5.33
2022-12-03T04:18:52.102Z,5.33
2022-12-03T04:21:41.925Z,5.30
2022-12-03T04:24:11.501Z,5.27
2022-12-03T04:26:58.000Z,5.25
2022-12-03T04:29:25.709Z,5.27
2022-12-03T04:32:12.119Z,5.28
2022-12-03T04:34:58.628Z,5.29
2022-12-03T04:37:26.478Z,5.26
2022-12-03T04:39:54.240Z,5.24
2022-12-03T04:42:21.939Z,5.23
2022-12-03T04:44:50.393Z,5.24
2022-12-03T04:47:21.602Z,5.22
2022-12-03T04:49:51.864Z,5.22
2022-12-03T04:52:21.145Z,5.18
2022-12-03T04:54:49.146Z,5.14
2022-12-03T04:57:17.430Z,5.14
2022-12-03T04:59:45.331Z,5.15
2022-12-03T05:02:13.161Z,5.15
2022-12-03T05:04:41.879Z,5.14
2022-12-03T05:07:11.365Z,5.13
2022-12-03T05:09:39.125Z,5.16
2022-12-03T05:12:07.030Z,5.14
2022-12-03T05:14:34.809Z,5.14
2022-12-03T05:17:02.600Z,5.11
2022-12-03T05:19:50.944Z,5.10
2022-12-03T05:22:18.684Z,5.09
2022-12-03T05:24:46.399Z,5.11
2022-12-03T05:27:15.800Z,5.13
2022-12-03T05:29:46.828Z,5.13
2022-12-03T05:32:15.062Z,5.16
2022-12-03T05:34:42.785Z,5.19
2022-12-03T05:37:10.980Z,5.20
2022-12-03T05:39:38.737Z,5.18
2022-12-03T05:42:25.232Z,5.18
2022-12-03T05:44:53.372Z,5.17
2022-12-03T05:47:21.349Z,5.16
2022-12-03T05:49:48.997Z,5.17
2022-12-03T05:52:16.914Z,5.19
2022-12-03T05:54:44.756Z,5.20
2022-12-03T05:57:12.412Z,5.19
2022-12-03T05:59:40.118Z,5.19
2022-12-03T06:02:07.810Z,5.20
2022-12-03T06:04:36.400Z,5.18
2022-12-03T06:07:04.098Z,5.15
2022-12-03T06:09:31.754Z,5.15
2022-12-03T06:11:59.515Z,5.14
2022-12-03T06:14:27.332Z,5.15
2022-12-03T06:16:54.992Z,5.18
2022-12-03T06:19:23.088Z,5.20
2022-12-03T06:21:50.790Z,5.20
2022-12-03T06:24:18.609Z,5.18
2022-12-03T06:26:46.332Z,5.18
2022-12-03T06:29:14.034Z,5.13
2022-12-03T06:31:42.304Z,5.13
2022-12-03T06:34:10.142Z,5.14
2022-12-03T06:36:37.873Z,5.14
2022-12-03T06:39:05.603Z,5.11
2022-12-03T06:41:33.371Z,5.10
2022-12-03T06:44:01.081Z,5.11
2022-12-03T06:46:29.025Z,5.11
2022-12-03T06:48:56.893Z,5.12
2022-12-03T06:51:24.672Z,5.11
2022-12-03T06:53:52.679Z,5.09
2022-12-03T06:56:22.552Z,5.09
2022-12-03T06:58:50.945Z,5.09
2022-12-03T07:01:19.409Z,5.11
2022-12-03T07:03:47.684Z,5.10
2022-12-03T07:06:15.434Z,5.08
2022-12-03T07:08:43.232Z,5.08
2022-12-03T07:11:29.837Z,5.10
2022-12-03T07:14:05.566Z,5.09
2022-12-03T07:16:36.075Z,5.08
2022-12-03T07:19:05.634Z,5.09
2022-12-03T07:21:33.480Z,5.11
2022-12-03T07:24:01.651Z,5.14
2022-12-03T07:26:29.487Z,5.17
2022-12-03T07:28:58.336Z,5.19
2022-12-03T07:31:26.389Z,5.18
2022-12-03T07:33:54.181Z,5.19
2022-12-03T07:36:21.896Z,5.21
2022-12-03T07:38:49.591Z,5.22
2022-12-03T07:41:17.314Z,5.22
2022-12-03T07:43:45.288Z,5.23
2022-12-03T07:46:13.124Z,5.23
2022-12-03T07:48:41.015Z,5.27
2022-12-03T07:51:10.505Z,5.24
2022-12-03T07:53:42.311Z,5.26
2022-12-03T07:56:10.983Z,5.26
2022-12-03T07:58:38.768Z,5.25
2022-12-03T08:01:06.574Z,5.28
2022-12-03T08:03:34.363Z,5.26
2022-12-03T08:06:02.463Z,5.28
2022-12-03T08:08:30.163Z,5.29
2022-12-03T08:10:57.842Z,5.32
2022-12-03T08:13:25.556Z,5.35
2022-12-03T08:16:01.745Z,5.38
2022-12-03T08:18:29.475Z,5.40
2022-12-03T08:20:57.238Z,5.41
2022-12-03T08:23:25.918Z,5.43
2022-12-03T08:25:53.793Z,5.45
2022-12-03T08:28:28.020Z,5.49
2022-12-03T08:31:03.609Z,5.50
2022-12-03T08:33:37.378Z,5.55
2022-12-03T08:36:29.298Z,5.58
2022-12-03T08:39:02.397Z,5.62
2022-12-03T08:41:49.101Z,5.67
2022-12-03T08:44:32.442Z,5.70
2022-12-03T08:47:24.663Z,5.72
2022-12-03T08:50:21.893Z,5.73
2022-12-03T08:52:50.005Z,5.73
2022-12-03T08:55:55.276Z,5.75
2022-12-03T08:58:43.817Z,5.76
2022-12-03T09:01:11.566Z,5.77
2022-12-03T09:03:50.181Z,5.79
2022-12-03T09:06:18.041Z,5.82
2022-12-03T09:08:45.947Z,5.86
2022-12-03T09:11:14.419Z,5.89
2022-12-03T09:13:42.291Z,5.94
2022-12-03T09:16:09.993Z,5.96
2022-12-03T09:18:37.757Z,5.99
2022-12-03T09:21:05.876Z,6.04
2022-12-03T09:23:33.543Z,6.04
2022-12-03T09:26:01.243Z,6.10
2022-12-03T09:28:28.952Z,6.14
2022-12-03T09:30:56.620Z,6.18
2022-12-03T09:33:24.448Z,6.18
2022-12-03T09:35:52.107Z,6.22
2022-12-03T09:38:19.767Z,6.26
2022-12-03T09:40:47.503Z,6.28
2022-12-03T09:43:16.052Z,6.29
2022-12-03T09:45:49.040Z,6.31
2022-12-03T09:48:19.653Z,6.31
2022-12-03T09:50:48.121Z,6.33
2022-12-03T09:53:21.967Z,6.34
2022-12-03T09:55:50.548Z,6.36
2022-12-03T09:58:19.669Z,6.38
2022-12-03T10:00:51.385Z,6.40
2022-12-03T10:03:29.516Z,6.40
2022-12-03T10:05:57.927Z,6.46
2022-12-03T10:08:32.715Z,6.54
2022-12-03T10:11:00.698Z,6.57
2022-12-03T10:13:31.389Z,6.61
2022-12-03T10:16:01.425Z,6.70
2022-12-03T10:18:38.319Z,6.73
2022-12-03T10:21:19.857Z,6.75
2022-12-03T10:23:50.786Z,6.75
2022-12-03T10:26:40.083Z,6.81
2022-12-03T10:29:20.649Z,6.84
2022-12-03T10:32:03.026Z,6.88
2022-12-03T10:34:34.815Z,6.90
2022-12-03T10:37:22.702Z,6.94
2022-12-03T10:40:10.667Z,6.95
2022-12-03T10:42:41.129Z,6.95
2022-12-03T10:45:22.502Z,6.98
2022-12-03T10:48:18.024Z,7.05
2022-12-03T10:50:48.447Z,7.18
2022-12-03T10:53:17.522Z,7.22
2022-12-03T10:55:47.319Z,7.21
2022-12-03T10:58:24.276Z,7.26
2022-12-03T11:00:56.837Z,7.30
2022-12-03T11:03:28.538Z,7.34
2022-12-03T11:05:57.798Z,7.39
2022-12-03T11:08:29.817Z,7.44
2022-12-03T11:11:03.875Z,7.50
2022-12-03T11:13:34.294Z,7.52
2022-12-03T11:16:05.987Z,7.55
2022-12-03T11:18:36.911Z,7.55
2022-12-03T11:21:08.060Z,7.57
2022-12-03T11:24:03.025Z,7.63
2022-12-03T11:26:30.655Z,7.64
2022-12-03T11:28:59.503Z,7.61
2022-12-03T11:31:42.300Z,7.55
2022-12-03T11:34:22.487Z,7.60
2022-12-03T11:37:12.387Z,7.66
2022-12-03T11:39:52.639Z,7.71
2022-12-03T11:42:26.940Z,7.69
2022-12-03T11:45:03.766Z,7.67
2022-12-03T11:47:36.707Z,7.67
2022-12-03T11:50:22.216Z,7.69
2022-12-03T11:52:58.844Z,7.74
2022-12-03T11:55:48.746Z,7.79
2022-12-03T11:58:30.684Z,7.77
2022-12-03T12:01:02.456Z,7.75
2022-12-03T12:03:41.747Z,7.80
2022-12-03T12:06:16.649Z,7.77
2022-12-03T12:09:00.249Z,7.73
2022-12-03T12:11:35.565Z,7.69
2022-12-03T12:14:06.612Z,7.73
2022-12-03T12:16:55.267Z,7.85
2022-12-03T12:19:35.477Z,7.95
2022-12-03T12:22:19.795Z,8.03
2022-12-03T12:24:51.664Z,8.06
2022-12-03T12:27:37.839Z,8.06
2022-12-03T12:30:15.449Z,8.02
2022-12-03T12:32:51.567Z,7.98
2022-12-03T12:35:32.485Z,7.95
2022-12-03T12:38:06.246Z,7.98
2022-12-03T12:40:37.811Z,7.97
2022-12-03T12:43:26.121Z,7.93
2022-12-03T12:46:13.487Z,7.93
2022-12-03T12:48:48.247Z,7.91
2022-12-03T12:51:21.144Z,7.93
2022-12-03T12:53:50.120Z,7.92
2022-12-03T12:56:28.129Z,7.89
2022-12-03T12:59:01.308Z,7.86
2022-12-03T13:01:31.926Z,7.89
2022-12-03T13:03:59.946Z,7.90
2022-12-03T13:06:31.140Z,7.88
2022-12-03T13:09:01.143Z,7.97
2022-12-03T13:11:47.672Z,8.08
2022-12-03T13:14:24.995Z,8.18
2022-12-03T13:16:56.517Z,8.28
2022-12-03T13:19:26.939Z,8.37
2022-12-03T13:21:57.533Z,8.39
2022-12-03T13:24:43.050Z,8.43
2022-12-03T13:27:13.859Z,8.45
2022-12-03T13:29:42.141Z,8.45
2022-12-03T13:32:23.293Z,8.48
2022-12-03T13:34:51.225Z,8.52
2022-12-03T13:37:28.299Z,8.56
2022-12-03T13:39:58.377Z,8.62
2022-12-03T13:42:39.127Z,8.69
2022-12-03T13:45:16.081Z,8.72
2022-12-03T13:47:48.026Z,8.76
2022-12-03T13:50:41.262Z,8.81
2022-12-03T13:53:33.483Z,8.87
2022-12-03T13:56:27.826Z,8.77
2022-12-03T13:58:59.652Z,8.69
2022-12-03T14:01:28.706Z,8.67
2022-12-03T14:03:56.955Z,8.72
2022-12-03T14:06:24.708Z,8.73
2022-12-03T14:08:52.505Z,8.80
2022-12-03T14:11:38.989Z,8.81
2022-12-03T14:14:06.673Z,8.74
2022-12-03T14:16:34.423Z,8.66
2022-12-03T14:19:02.367Z,8.56
2022-12-03T14:21:30.104Z,8.49
2022-12-03T14:23:57.777Z,8.44
2022-12-03T14:26:26.515Z,8.43
2022-12-03T14:28:54.185Z,8.35
2022-12-03T14:31:21.989Z,8.31
2022-12-03T14:33:49.846Z,8.19
2022-12-03T14:36:17.613Z,8.07
2022-12-03T14:38:45.308Z,8.00
2022-12-03T14:41:31.653Z,7.90
2022-12-03T14:43:59.486Z,7.83
2022-12-03T14:46:27.301Z,7.80
2022-12-03T14:48:55.071Z,7.72
2022-12-03T14:51:23.180Z,7.67
2022-12-03T14:53:50.832Z,7.63
2022-12-03T14:56:20.145Z,7.55
2022-12-03T14:58:47.817Z,7.52
2022-12-03T15:01:15.530Z,7.52
2022-12-03T15:03:43.229Z,7.49
2022-12-03T15:06:10.999Z,7.44
2022-12-03T15:08:38.666Z,7.42
2022-12-03T15:11:06.846Z,7.43
2022-12-03T15:13:34.561Z,7.38
2022-12-03T15:16:03.028Z,7.30
2022-12-03T15:18:31.164Z,7.28
2022-12-03T15:20:58.889Z,7.25
2022-12-03T15:23:26.799Z,7.20
2022-12-03T15:25:54.628Z,7.14
2022-12-03T15:28:23.169Z,7.10
2022-12-03T15:30:51.064Z,7.08
2022-12-03T15:33:19.080Z,7.05
2022-12-03T15:35:46.844Z,7.00
2022-12-03T15:38:14.510Z,6.97
2022-12-03T15:40:42.520Z,6.96
2022-12-03T15:43:10.219Z,6.94
2022-12-03T15:45:37.998Z,6.92
2022-12-03T15:48:06.049Z,6.88
2022-12-03T15:50:39.717Z,6.84
2022-12-03T15:53:07.871Z,6.80
2022-12-03T15:55:35.570Z,6.79
2022-12-03T15:58:03.331Z,6.80
2022-12-03T16:00:31.028Z,6.77
2022-12-03T16:02:59.920Z,6.75
2022-12-03T16:05:28.715Z,6.74
2022-12-03T16:07:56.463Z,6.71
2022-12-03T16:10:24.481Z,6.72
2022-12-03T16:12:52.143Z,6.70
2022-12-03T16:15:25.114Z,6.69
2022-12-03T16:17:54.528Z,6.68
2022-12-03T16:20:22.310Z,6.61
2022-12-03T16:22:49.992Z,6.60
2022-12-03T16:25:18.128Z,6.57
2022-12-03T16:27:45.792Z,6.55
2022-12-03T16:30:14.053Z,6.53
2022-12-03T16:32:41.796Z,6.51
2022-12-03T16:35:09.636Z,6.49
2022-12-03T16:37:37.324Z,6.48
2022-12-03T16:40:06.626Z,6.47
2022-12-03T16:42:34.300Z,6.48
2022-12-03T16:45:04.469Z,6.48
2022-12-03T16:47:34.422Z,6.48
2022-12-03T16:50:07.492Z,6.47
2022-12-03T16:52:35.783Z,6.43
2022-12-03T16:55:04.271Z,6.40
2022-12-03T16:57:33.911Z,6.38
2022-12-03T17:00:01.976Z,6.36
2022-12-03T17:02:29.806Z,6.35
2022-12-03T17:04:57.732Z,6.35
2022-12-03T17:07:25.543Z,6.35
2022-12-03T17:09:53.543Z,6.32
2022-12-03T17:12:21.445Z,6.29
2022-12-03T17:14:49.173Z,6.27
2022-12-03T17:17:18.865Z,6.27
2022-12-03T17:19:46.605Z,6.26
2022-12-03T17:22:14.310Z,6.26
2022-12-03T17:24:44.185Z,6.22
2022-12-03T17:27:12.796Z,6.20
2022-12-03T17:29:40.463Z,6.20
2022-12-03T17:32:08.818Z,6.21
2022-12-03T17:34:36.548Z,6.20
2022-12-03T17:37:04.341Z,6.17
2022-12-03T17:39:32.072Z,6.16
2022-12-03T17:41:59.739Z,6.13
2022-12-03T17:44:27.452Z,6.11
2022-12-03T17:46:55.231Z,6.10
2022-12-03T17:49:28.304Z,6.10
2022-12-03T17:52:00.159Z,6.07
2022-12-03T17:54:43.241Z,6.06
2022-12-03T17:57:15.594Z,6.04
2022-12-03T17:59:44.196Z,6.06
2022-12-03T18:02:12.023Z,6.05
2022-12-03T18:04:39.836Z,6.03
2022-12-03T18:07:07.521Z,6.02
2022-12-03T18:09:35.257Z,5.99
2022-12-03T18:12:03.023Z,5.98
2022-12-03T18:14:30.744Z,5.98
2022-12-03T18:16:58.431Z,5.98
2022-12-03T18:19:26.717Z,6.00
2022-12-03T18:21:55.111Z,5.97
2022-12-03T18:24:23.392Z,5.95
2022-12-03T18:26:51.116Z,5.91
2022-12-03T18:29:18.927Z,5.91
2022-12-03T18:31:46.862Z,5.89
2022-12-03T18:34:15.314Z,5.87
2022-12-03T18:36:43.333Z,5.84
2022-12-03T18:39:24.997Z,5.84
2022-12-03T18:41:53.458Z,5.84
2022-12-03T18:44:21.421Z,5.83
2022-12-03T18:46:53.818Z,5.81
2022-12-03T18:49:22.534Z,5.81
2022-12-03T18:51:54.513Z,5.82
2022-12-03T18:54:26.534Z,5.80
2022-12-03T18:56:54.201Z,5.78
2022-12-03T18:59:21.889Z,5.80
2022-12-03T19:01:50.667Z,5.79
2022-12-03T19:04:18.398Z,5.80
2022-12-03T19:06:46.053Z,5.79
2022-12-03T19:09:14.106Z,5.79
2022-12-03T19:11:41.854Z,5.77
2022-12-03T19:14:11.067Z,5.76
2022-12-03T19:16:40.858Z,5.74
2022-12-03T19:19:09.774Z,5.73
2022-12-03T19:21:37.687Z,5.72
2022-12-03T19:26:55.447Z,5.69
2022-12-03T19:29:23.348Z,5.67
2022-12-03T19:31:52.438Z,5.64
2022-12-03T19:34:20.367Z,5.61
2022-12-03T19:36:48.281Z,5.58
2022-12-03T19:39:15.993Z,5.55
2022-12-03T19:41:44.754Z,5.53
2022-12-03T19:44:15.068Z,5.49
2022-12-03T19:46:43.400Z,5.44
2022-12-03T19:49:11.512Z,5.43
2022-12-03T19:51:39.253Z,5.43
2022-12-03T19:54:10.706Z,5.43
2022-12-03T19:56:38.744Z,5.38
2022-12-03T19:59:07.706Z,5.35
2022-12-03T20:01:36.641Z,5.32
2022-12-03T20:04:04.587Z,5.29
2022-12-03T20:06:37.529Z,5.27
2022-12-03T20:09:11.520Z,5.25
2022-12-03T20:11:41.670Z,5.24
2022-12-03T20:14:16.612Z,5.22
2022-12-03T20:16:45.499Z,5.23
2022-12-03T20:19:16.224Z,5.22
2022-12-03T20:21:44.704Z,5.22
2022-12-03T20:24:18.257Z,5.24
2022-12-03T20:26:46.241Z,5.26
2022-12-03T20:29:14.366Z,5.27
2022-12-03T20:31:42.109Z,5.25
2022-12-03T20:34:11.333Z,5.26
2022-12-03T20:36:39.899Z,5.27
2022-12-03T20:39:08.321Z,5.28
2022-12-03T20:41:36.880Z,5.29
2022-12-03T20:44:07.307Z,5.30
2022-12-03T20:46:36.047Z,5.32
2022-12-03T20:49:05.584Z,5.36
2022-12-03T20:51:33.675Z,5.37
2022-12-03T20:54:02.356Z,5.39
2022-12-03T20:56:39.255Z,5.40
2022-12-03T20:59:11.499Z,5.42
2022-12-03T21:01:41.925Z,5.43
2022-12-03T21:04:13.526Z,5.42
2022-12-03T21:06:42.437Z,5.40
2022-12-03T21:09:12.562Z,5.38
2022-12-03T21:11:42.531Z,5.35
2022-12-03T21:14:11.256Z,5.33
2022-12-03T21:17:06.526Z,5.37
2022-12-03T21:19:27.800Z,5.35
2022-12-03T21:21:55.495Z,5.33
2022-12-03T21:24:23.241Z,5.30
2022-12-03T21:26:51.108Z,5.28
2022-12-03T21:29:18.975Z,5.23
2022-12-03T21:31:46.811Z,5.21
2022-12-03T21:34:15.013Z,5.18
2022-12-03T21:36:42.802Z,5.21
2022-12-03T21:39:10.967Z,5.23
2022-12-03T21:41:38.704Z,5.20
2022-12-03T21:44:06.390Z,5.16
2022-12-03T21:47:10.952Z,5.15
2022-12-03T21:49:22.767Z,5.21
2022-12-03T21:51:50.490Z,5.22
2022-12-03T21:54:18.555Z,5.21
2022-12-03T21:56:46.261Z,5.23
2022-12-03T21:59:14.608Z,5.24
2022-12-03T22:01:46.977Z,5.25
2022-12-03T22:04:15.153Z,5.24
2022-12-03T22:06:43.131Z,5.28
2022-12-03T22:09:10.782Z,5.32
2022-12-03T22:11:38.926Z,5.35
2022-12-03T22:14:08.278Z,5.39
2022-12-03T22:16:36.162Z,5.41
2022-12-03T22:19:04.103Z,5.43
2022-12-03T22:21:31.839Z,5.41
2022-12-03T22:23:59.846Z,5.42
2022-12-03T22:26:27.546Z,5.43
2022-12-03T22:28:55.249Z,5.43
2022-12-03T22:31:22.990Z,5.45
2022-12-03T22:33:50.939Z,5.46
2022-12-03T22:36:21.437Z,5.49
2022-12-03T22:38:51.026Z,5.49
2022-12-03T22:41:20.106Z,5.52
2022-12-03T22:43:49.498Z,5.53
2022-12-03T22:46:17.836Z,5.53
2022-12-03T22:48:47.029Z,5.56
2022-12-03T22:51:21.228Z,5.57
2022-12-03T22:53:55.934Z,5.58
2022-12-03T22:56:25.734Z,5.58
2022-12-03T22:58:53.473Z,5.60
2022-12-03T23:01:26.691Z,5.61
2022-12-03T23:03:55.345Z,5.61
2022-12-03T23:06:24.614Z,5.62
2022-12-03T23:08:52.955Z,5.62
2022-12-03T23:11:21.171Z,5.64
2022-12-03T23:13:49.057Z,5.65
2022-12-03T23:16:27.505Z,5.66
2022-12-03T23:18:58.428Z,5.66
2022-12-03T23:21:31.009Z,5.66
2022-12-03T23:24:00.548Z,5.66
2022-12-03T23:26:29.238Z,5.66
2022-12-03T23:28:57.016Z,5.63
2022-12-03T23:31:30.278Z,5.58
2022-12-03T23:33:59.940Z,5.56
2022-12-03T23:36:31.515Z,5.52
2022-12-03T23:38:59.491Z,5.49
2022-12-03T23:41:28.023Z,5.47
2022-12-03T23:43:56.623Z,5.43
2022-12-03T23:46:27.303Z,5.40
2022-12-03T23:48:55.240Z,5.30
2022-12-03T23:51:25.500Z,5.20
2022-12-03T23:53:55.441Z,5.12
2022-12-03T23:56:30.585Z,5.00
2022-12-03T23:58:58.885Z,4.88
